Towson, MD

5:35 PM EST on December 07, 2016 (GMT -0500)
Towson Weather | | Change Station

Elev 407 ft 39.38 °N, 76.60 °W | Updated 4 seconds ago

Partly Cloudy
Partly Cloudy
42.4 °F
Feels Like 42 °F
N
0.0
Wind Variable Wind from West
Gusts 0.0 mph

Today
High -- | Low -- °F
--% Chance of Precip.
Yesterday
High -- | Low -- °F
Precip. -- in
Pressure 30.07 in
Visibility 10.0 miles
Clouds Few 15000 ft
Windchill 42 °F
Dew Point 34 °F
Humidity 73%
Rainfall 0.02 in
Snow Depth Not available.
7:13 AM 4:42 PM
First Quarter, 56% visible
METAR KMTN 072155Z 30005KT 10SM FEW150 07/01 A3007
Pressure 30.07 in
Visibility 10.0 miles
Clouds Few 15000 ft
Windchill 42 °F
Dew Point 34 °F
Humidity 73%
Rainfall 0.02 in
Snow Depth Not available.
7:13 AM 4:42 PM
First Quarter, 56% visible
METAR KMTN 072155Z 30005KT 10SM FEW150 07/01 A3007

10-Day Weather Forecast

Almanac

Astronomy

Dec. 07, 2016 Rise Set
Actual Time
Civil Twilight
Nautical Twilight
Astronomical Twilight
Moon
Length of Visible Light
Length of Day
Tomorrow will be .
, % of the Moon is Illuminated

Today's Extremes

State Highs State Lows

Community

WunderPhotos

Upload Photos

1,956,214 photos uploaded!

WunderBlog® & News

Nearby

Air Quality

  Air Quality AQ Index Pollutant
Not available.

Snow Depth

Station Depth Elevation

Earthquake Activity

City Distance Mag. Time & Date
Minimum magnitude displayed is 2.5.

Coastal Water Temperatures

Place Temperature

Stations

Nearby Weather Stations

Station Location Temp. Windchill Dew Point Humidity Wind Precip. Elev Updated Type
                   

Watches & Warnings

There are currently no watches in effect.